»·PEaware :: N16RD KSNA-KRIR

N16RD :: KSNA-KRIR

FLIGHT INFORMATION

Flight Status: Arrived
Operator: Privately registered:
United States
More flights under this callsign
Pilot: Brett B. (12105)
Aircraft: CESSNA 172 SKYHAWK
(C172)
More flights by this aircraft type
Origin: KSNA John Wayne-Orange Co
United States
Destination: KRIR Flabob
United States
More flights between these airports :: More routes between these airports
Route: KSNA KRIR KCRQ
File this flight plan on PilotEdge
Remarks:
Altitude:
(Current/Filed)
2,500ft
Speed:
(Current/Filed)
115kts
Departed: 06-Sep-17 07:06 PM
Arrived: 06-Sep-17 07:29 PM
Distance/Time
Traveled:
30nm/0:23
Distance/Time
To Go:
Arrived

Flight Plot

Page will automatically refresh every two minutes.

Flight plan parsing failed; only flown route is shown


Map Options




Map Legend


Flown Route
Filed Route
Departure Airport
Arrival Airport
Navaid (VOR, NDB)
Fix

Horizontal Profiles

Position Reports

Time Latitude Longitude Heading Altitude Ground
Speed
06-Sep-17 18:57 33.681703 -117.866972 88 59ft 0kts
06-Sep-17 18:58 33.681703 -117.866972 88 59ft 0kts
06-Sep-17 18:59 33.681703 -117.866972 88 59ft 0kts
06-Sep-17 19:00 33.681703 -117.866972 88 59ft 0kts
06-Sep-17 19:01 33.681703 -117.866972 88 59ft 0kts
06-Sep-17 19:02 33.681703 -117.866972 88 59ft 0kts
06-Sep-17 19:03 33.681703 -117.866972 88 59ft 0kts
06-Sep-17 19:04 33.681703 -117.866972 87 59ft 0kts
06-Sep-17 19:05 33.681703 -117.866970 87 59ft 0kts
06-Sep-17 19:06 33.681703 -117.866970 87 59ft 0kts
06-Sep-17 19:07 33.681800 -117.865863 116 59ft 0kts
06-Sep-17 19:08 33.681800 -117.865863 116 59ft 0kts
06-Sep-17 19:09 33.681712 -117.865651 116 59ft 7kts
06-Sep-17 19:10 33.669627 -117.873288 206 519ft 72kts
06-Sep-17 19:11 33.661358 -117.858676 92 1224ft 89kts
06-Sep-17 19:12 33.661407 -117.827282 92 1752ft 96kts
06-Sep-17 19:13 33.678762 -117.804387 37 2259ft 101kts
06-Sep-17 19:14 33.702316 -117.785677 37 2751ft 101kts
06-Sep-17 19:15 33.725592 -117.767514 42 3252ft 94kts
06-Sep-17 19:16 33.744414 -117.747409 47 3735ft 88kts
06-Sep-17 19:17 33.762495 -117.727934 47 4221ft 86kts
06-Sep-17 19:18 33.780102 -117.708967 47 4689ft 85kts
06-Sep-17 19:19 33.799794 -117.687169 47 4709ft 102kts
06-Sep-17 19:20 33.820821 -117.663634 47 4705ft 103kts
06-Sep-17 19:21 33.841813 -117.640122 47 4705ft 103kts
06-Sep-17 19:22 33.862809 -117.616601 47 4705ft 103kts
06-Sep-17 19:23 33.883879 -117.592990 47 4705ft 103kts
06-Sep-17 19:24 33.902175 -117.566915 56 4705ft 102kts
06-Sep-17 19:25 33.919541 -117.539972 56 4705ft 102kts
06-Sep-17 19:26 33.935385 -117.510642 64 4707ft 105kts
06-Sep-17 19:27 33.952517 -117.481575 54 4705ft 106kts
06-Sep-17 19:28 33.968318 -117.455036 64 4030ft 94kts
06-Sep-17 19:29 33.974674 -117.425158 94 2887ft 96kts
06-Sep-17 19:30 33.981425 -117.394974 72 1837ft 82kts
06-Sep-17 19:31 33.994941 -117.383568 278 1232ft 81kts
06-Sep-17 19:32 33.989295 -117.407367 253 767ft 43kts
06-Sep-17 19:33 33.988985 -117.411746 77 767ft 0kts
06-Sep-17 19:34 33.988985 -117.411746 77 767ft 0kts
06-Sep-17 19:35 33.988985 -117.411746 77 767ft 0kts
06-Sep-17 19:36 33.988985 -117.411745 77 767ft 0kts
06-Sep-17 19:37 33.989010 -117.411601 77 767ft 7kts
06-Sep-17 19:38 33.989476 -117.409104 76 767ft 14kts
06-Sep-17 19:39 33.989969 -117.406556 76 767ft 9kts
06-Sep-17 19:40 33.990021 -117.405353 148 767ft 0kts
06-Sep-17 19:41 33.987438 -117.416923 252 884ft 84kts
06-Sep-17 19:42 33.975570 -117.424723 80 1581ft 84kts
06-Sep-17 19:43 33.971714 -117.399212 156 2250ft 82kts
06-Sep-17 19:44 33.954034 -117.381856 133 2989ft 84kts
06-Sep-17 19:45 33.940894 -117.358320 119 3690ft 84kts
06-Sep-17 19:46 33.927182 -117.340894 176 4408ft 71kts
06-Sep-17 19:47 33.909495 -117.329503 136 4925ft 81kts

Navigation Log

Ident Type
Flight plan parsing failed, navigation log unavailable